createdAt,value
2023-03-21T00:02:20.196Z,13.40
2023-03-21T00:05:15.908Z,13.40
2023-03-21T00:08:07.188Z,13.40
2023-03-21T00:10:59.408Z,13.40
2023-03-21T00:13:48.702Z,13.40
2023-03-21T00:16:40.508Z,13.30
2023-03-21T00:19:30.538Z,13.30
2023-03-21T00:22:19.823Z,13.30
2023-03-21T00:25:11.628Z,13.30
2023-03-21T00:28:08.417Z,13.30
2023-03-21T00:31:01.895Z,13.30
2023-03-21T00:33:51.315Z,13.30
2023-03-21T00:36:40.618Z,13.20
2023-03-21T00:39:29.998Z,13.20
2023-03-21T00:42:20.707Z,13.20
2023-03-21T00:45:11.098Z,13.20
2023-03-21T00:48:00.767Z,13.20
2023-03-21T00:50:54.123Z,13.20
2023-03-21T00:53:44.479Z,13.20
2023-03-21T00:56:34.118Z,13.20
2023-03-21T00:59:24.782Z,13.20
2023-03-21T01:02:22.752Z,13.20
2023-03-21T01:05:33.282Z,13.20
2023-03-21T01:08:28.202Z,13.10
2023-03-21T01:11:21.492Z,13.10
2023-03-21T01:14:21.937Z,13.10
2023-03-21T01:17:13.482Z,13.10
2023-03-21T01:20:02.940Z,13.10
2023-03-21T01:22:52.277Z,13.10
2023-03-21T01:25:41.608Z,13.10
2023-03-21T01:28:31.525Z,13.10
2023-03-21T01:31:21.135Z,13.00
2023-03-21T01:34:11.895Z,13.00
2023-03-21T01:37:01.605Z,13.00
2023-03-21T01:39:52.023Z,13.00
2023-03-21T01:42:41.664Z,13.00
2023-03-21T01:46:13.773Z,13.00
2023-03-21T01:49:26.124Z,13.00
2023-03-21T01:52:36.438Z,13.00
2023-03-21T01:55:29.747Z,12.90
2023-03-21T01:58:22.222Z,12.90
2023-03-21T02:01:34.852Z,12.90
2023-03-21T02:04:28.110Z,12.90
2023-03-21T02:07:53.796Z,12.90
2023-03-21T02:10:45.321Z,12.90
2023-03-21T02:13:37.918Z,12.90
2023-03-21T02:16:47.764Z,12.90
2023-03-21T02:20:22.232Z,12.90
2023-03-21T02:24:21.765Z,12.90
2023-03-21T02:27:15.800Z,12.90
2023-03-21T02:30:51.264Z,12.90
2023-03-21T02:34:18.447Z,12.80
2023-03-21T02:37:37.560Z,12.80
2023-03-21T02:40:34.286Z,12.80
2023-03-21T02:43:31.017Z,12.80
2023-03-21T02:46:33.438Z,12.70
2023-03-21T02:49:36.734Z,12.70
2023-03-21T02:52:38.654Z,12.70
2023-03-21T02:55:34.396Z,12.70
2023-03-21T02:58:29.534Z,12.70
2023-03-21T03:01:20.918Z,12.60
2023-03-21T03:04:23.416Z,12.60
2023-03-21T03:07:31.537Z,12.60
2023-03-21T03:10:36.802Z,12.50
2023-03-21T03:13:48.426Z,12.40
2023-03-21T03:16:46.824Z,12.40
2023-03-21T03:19:50.619Z,12.30
2023-03-21T03:22:51.002Z,12.20
2023-03-21T03:25:48.953Z,12.20
2023-03-21T03:28:43.078Z,12.10
2023-03-21T03:31:41.369Z,12.10
2023-03-21T03:34:34.921Z,12.00
2023-03-21T03:37:29.508Z,12.00
2023-03-21T03:40:25.803Z,12.00
2023-03-21T03:43:36.704Z,11.90
2023-03-21T03:46:33.356Z,11.90
2023-03-21T03:49:27.526Z,11.90
2023-03-21T03:52:23.996Z,11.90
2023-03-21T03:55:26.609Z,11.90
2023-03-21T03:58:24.020Z,11.90
2023-03-21T04:01:15.565Z,11.90
2023-03-21T04:04:12.991Z,11.90
2023-03-21T04:07:04.358Z,11.90
2023-03-21T04:09:53.769Z,11.90
2023-03-21T04:12:45.028Z,11.90
2023-03-21T04:15:54.644Z,11.90
2023-03-21T04:18:43.990Z,12.00
2023-03-21T04:21:33.446Z,11.90
2023-03-21T04:24:23.555Z,11.90
2023-03-21T04:27:13.723Z,11.90
2023-03-21T04:30:24.888Z,11.90
2023-03-21T04:33:26.335Z,11.90
2023-03-21T04:36:27.504Z,11.90
2023-03-21T04:39:20.123Z,11.90
2023-03-21T04:42:12.030Z,11.90
2023-03-21T04:45:01.768Z,11.90
2023-03-21T04:47:52.497Z,11.90
2023-03-21T04:50:42.187Z,11.80
2023-03-21T04:53:31.528Z,11.90
2023-03-21T04:56:21.954Z,11.80
2023-03-21T04:59:15.890Z,11.90
2023-03-21T05:02:05.383Z,11.90
2023-03-21T05:04:57.468Z,11.80
2023-03-21T05:07:46.791Z,11.90
2023-03-21T05:10:36.174Z,11.80
2023-03-21T05:13:26.219Z,11.80
2023-03-21T05:16:15.550Z,11.80
2023-03-21T05:19:07.260Z,11.80
2023-03-21T05:22:05.597Z,11.80
2023-03-21T05:24:55.419Z,11.80
2023-03-21T05:27:54.934Z,11.80
2023-03-21T05:30:49.095Z,11.80
2023-03-21T05:33:39.124Z,11.80
2023-03-21T05:36:28.570Z,11.80
2023-03-21T05:39:20.685Z,11.80
2023-03-21T05:42:22.325Z,11.80
2023-03-21T05:45:12.965Z,11.90
2023-03-21T05:48:02.593Z,11.90
2023-03-21T05:50:56.518Z,11.90
2023-03-21T05:53:46.507Z,11.90
2023-03-21T05:56:39.142Z,11.90
2023-03-21T05:59:31.452Z,12.00
2023-03-21T06:02:21.550Z,12.00
2023-03-21T06:05:12.510Z,12.10
2023-03-21T06:08:02.253Z,12.10
2023-03-21T06:10:51.871Z,12.20
2023-03-21T06:13:42.757Z,12.20
2023-03-21T06:16:32.173Z,12.30
2023-03-21T06:19:22.054Z,12.30
2023-03-21T06:22:30.349Z,12.40
2023-03-21T06:25:19.824Z,12.40
2023-03-21T06:28:09.274Z,12.50
2023-03-21T06:31:03.890Z,12.60
2023-03-21T06:33:54.882Z,12.60
2023-03-21T06:36:46.721Z,12.70
2023-03-21T06:39:38.473Z,12.70
2023-03-21T06:42:29.536Z,12.80
2023-03-21T06:45:25.503Z,12.80
2023-03-21T06:48:17.251Z,12.90
2023-03-21T06:51:13.596Z,12.90
2023-03-21T06:54:11.628Z,13.00
2023-03-21T06:57:05.144Z,13.10
2023-03-21T06:59:58.269Z,13.20
2023-03-21T07:02:51.082Z,13.30
2023-03-21T07:05:44.349Z,13.40
2023-03-21T07:08:34.427Z,13.50
2023-03-21T07:11:24.981Z,13.60
2023-03-21T07:14:14.363Z,13.70
2023-03-21T07:17:03.751Z,13.80
2023-03-21T07:19:53.146Z,14.00
2023-03-21T07:22:44.221Z,14.10
2023-03-21T07:25:33.881Z,14.30
2023-03-21T07:28:24.793Z,14.50
2023-03-21T07:31:17.174Z,14.70
2023-03-21T07:34:06.685Z,14.90
2023-03-21T07:36:57.069Z,15.10
2023-03-21T07:39:47.705Z,15.30
2023-03-21T07:42:37.608Z,15.40
2023-03-21T07:45:27.399Z,15.50
2023-03-21T07:48:17.957Z,15.70
2023-03-21T07:51:08.210Z,15.80
2023-03-21T07:53:58.320Z,15.90
2023-03-21T07:56:48.936Z,16.00
2023-03-21T07:59:38.465Z,16.10
2023-03-21T08:02:28.182Z,16.10
2023-03-21T08:05:19.471Z,16.10
2023-03-21T08:08:09.107Z,16.10
2023-03-21T08:10:58.516Z,16.10
2023-03-21T08:13:49.529Z,16.10
2023-03-21T08:16:38.854Z,16.10
2023-03-21T08:19:28.240Z,16.10
2023-03-21T08:22:17.535Z,16.10
2023-03-21T08:25:11.094Z,16.10
2023-03-21T08:28:01.352Z,16.10
2023-03-21T08:30:52.373Z,16.10
2023-03-21T08:33:41.810Z,16.10
2023-03-21T08:36:32.325Z,16.10
2023-03-21T08:39:22.557Z,16.10
2023-03-21T08:42:12.089Z,16.20
2023-03-21T08:45:01.400Z,16.20
2023-03-21T08:47:52.481Z,16.30
2023-03-21T08:50:41.830Z,16.40
2023-03-21T08:53:31.144Z,16.50
2023-03-21T08:56:20.677Z,16.70
2023-03-21T08:59:12.457Z,16.80
2023-03-21T09:02:01.873Z,16.90
2023-03-21T09:04:55.010Z,17.00
2023-03-21T09:07:45.144Z,17.00
2023-03-21T09:10:35.541Z,17.10
2023-03-21T09:13:25.981Z,17.20
2023-03-21T09:16:15.385Z,17.30
2023-03-21T09:19:08.566Z,17.30
2023-03-21T09:21:59.748Z,17.40
2023-03-21T09:24:49.668Z,17.50
2023-03-21T09:27:39.356Z,17.60
2023-03-21T09:30:29.428Z,17.60
2023-03-21T09:33:19.398Z,17.70
2023-03-21T09:36:14.332Z,17.70
2023-03-21T09:39:05.598Z,17.80
2023-03-21T09:42:17.701Z,18.00
2023-03-21T09:45:17.270Z,18.20
2023-03-21T09:48:17.699Z,18.30
2023-03-21T09:51:13.818Z,18.60
2023-03-21T09:54:10.241Z,18.90
2023-03-21T09:57:05.108Z,19.20
2023-03-21T09:59:55.858Z,19.50
2023-03-21T10:02:56.933Z,19.90
2023-03-21T10:05:49.067Z,20.30
2023-03-21T10:08:41.912Z,20.80
2023-03-21T10:11:41.056Z,21.30
2023-03-21T10:14:35.493Z,21.90
2023-03-21T10:17:33.483Z,22.60
2023-03-21T10:20:26.143Z,23.30
2023-03-21T10:23:20.922Z,23.90
2023-03-21T10:26:14.768Z,24.30
2023-03-21T10:29:08.164Z,24.50
2023-03-21T10:31:57.626Z,24.60
2023-03-21T10:34:51.579Z,24.60
2023-03-21T10:37:41.068Z,24.50
2023-03-21T10:40:30.733Z,24.40
2023-03-21T10:43:35.338Z,24.20
2023-03-21T10:46:28.495Z,24.00
2023-03-21T10:49:19.015Z,23.90
2023-03-21T10:52:12.219Z,23.70
2023-03-21T10:55:18.818Z,23.50
2023-03-21T10:58:10.877Z,23.40
2023-03-21T11:01:05.812Z,23.30
2023-03-21T11:04:01.232Z,23.30
2023-03-21T11:06:55.307Z,23.10
2023-03-21T11:09:47.965Z,23.00
2023-03-21T11:12:40.948Z,23.00
2023-03-21T11:15:33.902Z,22.90
2023-03-21T11:18:26.148Z,22.90
2023-03-21T11:21:18.045Z,22.90
2023-03-21T11:24:12.129Z,23.00
2023-03-21T11:27:01.608Z,23.10
2023-03-21T11:29:52.532Z,23.20
2023-03-21T11:32:43.797Z,23.30
2023-03-21T11:35:37.053Z,23.40
2023-03-21T11:38:33.252Z,23.50
2023-03-21T11:41:25.479Z,23.50
2023-03-21T11:44:30.817Z,23.50
2023-03-21T11:47:20.496Z,23.60
2023-03-21T11:50:21.886Z,23.50
2023-03-21T11:53:32.516Z,23.50
2023-03-21T11:56:27.701Z,23.50
2023-03-21T11:59:32.825Z,23.50
2023-03-21T12:03:06.870Z,23.50
2023-03-21T12:06:02.186Z,23.50
2023-03-21T12:09:17.681Z,23.50
2023-03-21T12:12:38.380Z,23.60
2023-03-21T12:15:38.403Z,23.60
2023-03-21T12:18:48.063Z,23.70
2023-03-21T12:21:55.026Z,23.70
2023-03-21T12:24:52.100Z,23.90
2023-03-21T12:27:52.684Z,23.90
2023-03-21T12:30:54.998Z,24.00
2023-03-21T12:34:02.725Z,24.00
2023-03-21T12:37:11.624Z,24.00
2023-03-21T12:40:13.619Z,24.00
2023-03-21T12:43:35.533Z,24.10
2023-03-21T12:46:32.597Z,24.10
2023-03-21T12:49:30.101Z,24.00
2023-03-21T12:52:27.147Z,24.00
2023-03-21T12:55:22.825Z,23.90
2023-03-21T12:58:18.856Z,23.90
2023-03-21T13:01:09.757Z,23.90
2023-03-21T13:04:35.468Z,23.80
2023-03-21T13:07:26.540Z,23.80
2023-03-21T13:10:20.996Z,23.70
2023-03-21T13:13:20.203Z,23.70
2023-03-21T13:16:15.874Z,23.70
2023-03-21T13:19:17.054Z,23.60
2023-03-21T13:22:13.246Z,23.60
2023-03-21T13:25:16.504Z,23.50
2023-03-21T13:28:07.812Z,23.40
2023-03-21T13:31:19.375Z,23.40
2023-03-21T13:34:11.127Z,23.30
2023-03-21T13:37:00.778Z,23.30
2023-03-21T13:39:51.573Z,23.30
2023-03-21T13:42:46.605Z,23.20
2023-03-21T13:45:49.586Z,23.10
2023-03-21T13:48:59.445Z,23.10
2023-03-21T13:51:54.750Z,23.00
2023-03-21T13:54:51.668Z,23.00
2023-03-21T13:57:41.129Z,22.90
2023-03-21T14:00:32.002Z,22.90
2023-03-21T14:03:24.744Z,22.80
2023-03-21T14:06:15.021Z,22.80
2023-03-21T14:09:05.431Z,22.70
2023-03-21T14:11:58.805Z,22.70
2023-03-21T14:15:06.935Z,22.70
2023-03-21T14:18:15.900Z,22.60
2023-03-21T14:21:24.304Z,22.60
2023-03-21T14:24:16.044Z,22.60
2023-03-21T14:27:07.295Z,22.50
2023-03-21T14:29:57.566Z,22.50
2023-03-21T14:32:48.175Z,22.50
2023-03-21T14:35:37.859Z,22.40
2023-03-21T14:38:35.612Z,22.30
2023-03-21T14:41:28.733Z,22.30
2023-03-21T14:44:28.051Z,22.30
2023-03-21T14:47:21.317Z,22.30
2023-03-21T14:50:13.248Z,22.30
2023-03-21T14:53:02.700Z,22.20
2023-03-21T14:56:04.349Z,22.20
2023-03-21T14:58:54.960Z,22.20
2023-03-21T15:01:47.259Z,22.10
2023-03-21T15:04:36.637Z,22.10
2023-03-21T15:07:29.394Z,22.10
2023-03-21T15:10:19.325Z,22.10
2023-03-21T15:13:19.389Z,22.00
2023-03-21T15:16:10.373Z,22.00
2023-03-21T15:19:00.767Z,21.90
2023-03-21T15:21:55.576Z,21.80
2023-03-21T15:24:49.604Z,21.70
2023-03-21T15:27:43.259Z,21.60
2023-03-21T15:30:35.119Z,21.50
2023-03-21T15:33:26.615Z,21.40
2023-03-21T15:36:22.414Z,21.40
2023-03-21T15:39:16.794Z,21.30
2023-03-21T15:42:22.247Z,21.20
2023-03-21T15:45:21.901Z,21.20
2023-03-21T15:48:15.922Z,21.20
2023-03-21T15:51:08.544Z,21.10
2023-03-21T15:53:58.010Z,21.10
2023-03-21T15:56:51.771Z,21.10
2023-03-21T15:59:43.486Z,21.10
2023-03-21T16:02:32.940Z,21.10
2023-03-21T16:05:28.880Z,21.10
2023-03-21T16:08:23.881Z,21.00
2023-03-21T16:11:20.663Z,20.90
2023-03-21T16:14:10.757Z,20.80
2023-03-21T16:17:00.156Z,20.60
2023-03-21T16:19:49.410Z,20.50
2023-03-21T16:22:40.208Z,20.30
2023-03-21T16:25:30.554Z,20.30
2023-03-21T16:28:19.925Z,20.10
2023-03-21T16:31:15.480Z,20.10
2023-03-21T16:34:05.897Z,20.00
2023-03-21T16:36:55.423Z,19.90
2023-03-21T16:39:46.188Z,19.80
2023-03-21T16:42:35.549Z,19.70
2023-03-21T16:45:25.032Z,19.60
2023-03-21T16:48:16.630Z,19.60
2023-03-21T16:51:06.538Z,19.50
2023-03-21T16:53:56.186Z,19.50
2023-03-21T16:56:50.500Z,19.40
2023-03-21T16:59:40.865Z,19.30
2023-03-21T17:02:30.275Z,19.20
2023-03-21T17:05:19.667Z,19.20
2023-03-21T17:08:08.991Z,19.20
2023-03-21T17:10:59.147Z,19.10
2023-03-21T17:13:50.635Z,19.00
2023-03-21T17:16:42.973Z,19.00
2023-03-21T17:19:32.431Z,18.90
2023-03-21T17:22:22.340Z,18.90
2023-03-21T17:25:11.920Z,18.80
2023-03-21T17:28:01.254Z,18.80
2023-03-21T17:30:52.018Z,18.70
2023-03-21T17:33:41.460Z,18.70
2023-03-21T17:36:34.332Z,18.60
2023-03-21T17:39:28.723Z,18.60
2023-03-21T17:42:20.490Z,18.60
2023-03-21T17:45:11.366Z,18.50
2023-03-21T17:48:02.895Z,18.50
2023-03-21T17:50:52.253Z,18.40
2023-03-21T17:53:41.800Z,18.40
2023-03-21T17:56:33.476Z,18.30
2023-03-21T17:59:23.059Z,18.30
2023-03-21T18:02:12.501Z,18.20
2023-03-21T18:05:03.308Z,18.20
2023-03-21T18:08:11.265Z,18.10
2023-03-21T18:11:01.500Z,18.10
2023-03-21T18:13:51.247Z,18.00
2023-03-21T18:16:40.649Z,18.00
2023-03-21T18:19:30.048Z,17.90
2023-03-21T18:22:20.784Z,17.90
2023-03-21T18:25:11.664Z,17.80
2023-03-21T18:28:10.588Z,17.80
2023-03-21T18:31:10.651Z,17.70
2023-03-21T18:34:01.626Z,17.70
2023-03-21T18:36:50.978Z,17.70
2023-03-21T18:39:42.575Z,17.60
2023-03-21T18:42:31.886Z,17.60
2023-03-21T18:45:23.126Z,17.50
2023-03-21T18:48:13.754Z,17.50
2023-03-21T18:51:03.674Z,17.50
2023-03-21T18:53:53.017Z,17.40
2023-03-21T18:59:54.595Z,17.30
2023-03-21T19:02:49.092Z,17.30
2023-03-21T19:05:40.975Z,17.20
2023-03-21T19:08:30.766Z,17.20
2023-03-21T19:11:21.556Z,17.10
2023-03-21T19:14:13.522Z,17.10
2023-03-21T19:17:47.554Z,17.00
2023-03-21T19:20:13.960Z,17.00
2023-03-21T19:23:03.395Z,17.00
2023-03-21T19:25:52.757Z,16.90
2023-03-21T19:28:42.058Z,16.90
2023-03-21T19:31:32.775Z,16.90
2023-03-21T19:34:22.168Z,16.80
2023-03-21T19:37:11.523Z,16.80
2023-03-21T19:40:00.860Z,16.80
2023-03-21T19:42:50.149Z,16.70
2023-03-21T19:45:39.518Z,16.70
2023-03-21T19:48:30.676Z,16.60
2023-03-21T19:51:28.241Z,16.60
2023-03-21T19:54:19.003Z,16.60
2023-03-21T19:57:09.661Z,16.60
2023-03-21T19:59:59.134Z,16.50
2023-03-21T20:02:48.870Z,16.50
2023-03-21T20:05:39.555Z,16.50
2023-03-21T20:08:28.833Z,16.50
2023-03-21T20:11:18.675Z,16.40
2023-03-21T20:14:07.949Z,16.40
2023-03-21T20:16:57.334Z,16.40
2023-03-21T20:19:46.681Z,16.40
2023-03-21T20:23:05.255Z,16.30
2023-03-21T20:25:48.192Z,16.30
2023-03-21T20:28:38.333Z,16.30
2023-03-21T20:31:27.735Z,16.30
2023-03-21T20:34:18.153Z,16.30
2023-03-21T20:37:08.131Z,16.30
2023-03-21T20:39:58.859Z,16.30
2023-03-21T20:42:48.814Z,16.30
2023-03-21T20:45:38.427Z,16.30
2023-03-21T20:48:29.713Z,16.30
2023-03-21T20:54:28.545Z,16.30
2023-03-21T20:57:20.933Z,16.30
2023-03-21T21:00:17.109Z,16.30
2023-03-21T21:03:06.727Z,16.30
2023-03-21T21:05:56.035Z,16.30
2023-03-21T21:08:47.347Z,16.30
2023-03-21T21:14:47.889Z,16.30
2023-03-21T21:18:03.902Z,16.30
2023-03-21T21:20:46.793Z,16.30
2023-03-21T21:23:38.719Z,16.40
2023-03-21T21:26:28.092Z,16.40
2023-03-21T21:29:18.452Z,16.30
2023-03-21T21:32:09.371Z,16.40
2023-03-21T21:34:58.788Z,16.40
2023-03-21T21:37:48.458Z,16.30
2023-03-21T21:40:38.294Z,16.30
2023-03-21T21:43:28.322Z,16.30
2023-03-21T21:46:17.756Z,16.20
2023-03-21T21:49:08.522Z,16.20
2023-03-21T21:51:59.764Z,16.20
2023-03-21T21:54:49.934Z,16.10
2023-03-21T21:57:39.823Z,16.00
2023-03-21T22:00:31.839Z,16.00
2023-03-21T22:03:22.235Z,16.00
2023-03-21T22:06:13.699Z,16.00
2023-03-21T22:09:04.504Z,16.00
2023-03-21T22:11:53.843Z,15.90
2023-03-21T22:14:43.170Z,15.90
2023-03-21T22:17:32.567Z,15.90
2023-03-21T22:20:23.187Z,15.90
2023-03-21T22:23:13.968Z,15.80
2023-03-21T22:26:03.585Z,15.80
2023-03-21T22:28:52.950Z,15.80
2023-03-21T22:31:42.611Z,15.80
2023-03-21T22:34:31.982Z,15.80
2023-03-21T22:37:21.273Z,15.70
2023-03-21T22:40:14.924Z,15.70
2023-03-21T22:43:04.234Z,15.70
2023-03-21T22:45:54.051Z,15.70
2023-03-21T22:48:43.432Z,15.60
2023-03-21T22:51:32.765Z,15.60
2023-03-21T22:54:22.184Z,15.60
2023-03-21T22:57:13.638Z,15.60
2023-03-21T23:00:04.462Z,15.60
2023-03-21T23:02:53.896Z,15.60
2023-03-21T23:05:44.130Z,15.50
2023-03-21T23:08:33.510Z,15.50
2023-03-21T23:11:22.813Z,15.50
2023-03-21T23:14:15.322Z,15.50
2023-03-21T23:17:04.690Z,15.50
2023-03-21T23:19:54.017Z,15.50
2023-03-21T23:22:43.366Z,15.40
2023-03-21T23:25:33.631Z,15.40
2023-03-21T23:28:22.916Z,15.40
2023-03-21T23:31:17.685Z,15.40
2023-03-21T23:34:07.579Z,15.40
2023-03-21T23:36:56.861Z,15.40
2023-03-21T23:39:46.231Z,15.40
2023-03-21T23:42:36.238Z,15.30
2023-03-21T23:45:25.608Z,15.30
2023-03-21T23:48:16.301Z,15.30
2023-03-21T23:51:06.188Z,15.30
2023-03-21T23:53:56.424Z,15.30
2023-03-21T23:56:45.849Z,15.20
2023-03-21T23:59:35.196Z,15.20
